createdAt,value
2018-12-17T00:00:06.398Z,1020.79
2018-12-17T00:01:05.611Z,1020.84
2018-12-17T00:02:05.585Z,1020.77
2018-12-17T00:03:05.581Z,1020.78
2018-12-17T00:04:05.564Z,1020.82
2018-12-17T00:05:05.556Z,1020.81
2018-12-17T00:06:05.585Z,1020.83
2018-12-17T00:07:05.546Z,1020.79
2018-12-17T00:08:15.773Z,1020.77
2018-12-17T00:09:05.514Z,1020.76
2018-12-17T00:10:05.510Z,1020.71
2018-12-17T00:11:05.497Z,1020.71
2018-12-17T00:12:05.534Z,1020.74
2018-12-17T00:13:05.477Z,1020.72
2018-12-17T00:14:05.463Z,1020.65
2018-12-17T00:15:05.456Z,1020.62
2018-12-17T00:16:05.457Z,1020.59
2018-12-17T00:17:05.433Z,1020.59
2018-12-17T00:18:05.651Z,1020.60
2018-12-17T00:19:05.415Z,1020.57
2018-12-17T00:20:05.408Z,1020.56
2018-12-17T00:21:05.402Z,1020.56
2018-12-17T00:22:05.384Z,1020.50
2018-12-17T00:23:05.379Z,1020.52
2018-12-17T00:24:05.402Z,1020.52
2018-12-17T00:25:05.364Z,1020.51
2018-12-17T00:26:05.345Z,1020.50
2018-12-17T00:27:05.340Z,1020.49
2018-12-17T00:28:08.315Z,1020.50
2018-12-17T00:29:05.312Z,1020.50
2018-12-17T00:30:05.640Z,1020.49
2018-12-17T00:31:05.293Z,1020.42
2018-12-17T00:32:05.282Z,1020.44
2018-12-17T00:33:05.270Z,1020.42
2018-12-17T00:34:05.265Z,1020.46
2018-12-17T00:35:05.251Z,1020.44
2018-12-17T00:36:05.666Z,1020.47
2018-12-17T00:37:05.232Z,1020.46
2018-12-17T00:38:05.225Z,1020.41
2018-12-17T00:39:16.119Z,1020.37
2018-12-17T00:40:05.199Z,1020.37
2018-12-17T00:41:05.192Z,1020.27
2018-12-17T00:42:05.196Z,1020.32
2018-12-17T00:43:05.179Z,1020.28
2018-12-17T00:44:05.162Z,1020.27
2018-12-17T00:45:05.150Z,1020.28
2018-12-17T00:46:05.143Z,1020.22
2018-12-17T00:47:05.130Z,1020.24
2018-12-17T00:48:05.144Z,1020.26
2018-12-17T00:49:05.110Z,1020.27
2018-12-17T00:50:05.102Z,1020.22
2018-12-17T00:51:05.089Z,1020.21
2018-12-17T00:52:05.154Z,1020.16
2018-12-17T00:53:05.080Z,1020.24
2018-12-17T00:54:05.106Z,1020.21
2018-12-17T00:55:05.057Z,1020.23
2018-12-17T00:56:05.039Z,1020.19
2018-12-17T00:57:05.030Z,1020.14
2018-12-17T00:58:05.021Z,1020.19
2018-12-17T00:59:05.012Z,1020.15
2018-12-17T01:00:05.040Z,1020.19
2018-12-17T01:01:04.991Z,1020.12
2018-12-17T01:02:04.978Z,1020.13
2018-12-17T01:03:04.966Z,1020.12
2018-12-17T01:04:04.952Z,1020.14
2018-12-17T01:05:04.948Z,1020.08
2018-12-17T01:06:05.725Z,1020.12
2018-12-17T01:07:04.925Z,1020.07
2018-12-17T01:08:04.914Z,1020.05
2018-12-17T01:09:04.907Z,1020.10
2018-12-17T01:10:15.572Z,1020.11
2018-12-17T01:11:04.888Z,1020.11
2018-12-17T01:12:05.211Z,1020.09
2018-12-17T01:13:04.863Z,1020.09
2018-12-17T01:14:04.856Z,1020.06
2018-12-17T01:15:04.847Z,1020.08
2018-12-17T01:16:04.841Z,1020.04
2018-12-17T01:17:04.827Z,1020.07
2018-12-17T01:18:04.855Z,1020.08
2018-12-17T01:19:04.807Z,1020.05
2018-12-17T01:20:04.795Z,1020.04
2018-12-17T01:21:04.781Z,1020.15
2018-12-17T01:22:04.776Z,1020.08
2018-12-17T01:23:04.773Z,1020.07
2018-12-17T01:24:05.208Z,1020.08
2018-12-17T01:25:04.739Z,1020.02
2018-12-17T01:26:04.732Z,1019.98
2018-12-17T01:27:04.723Z,1019.94
2018-12-17T01:28:04.711Z,1019.99
2018-12-17T01:29:04.704Z,1019.94
2018-12-17T01:30:04.710Z,1019.94
2018-12-17T01:31:04.684Z,1019.93
2018-12-17T01:32:04.675Z,1019.91
2018-12-17T01:33:04.661Z,1019.86
2018-12-17T01:34:04.648Z,1019.86
2018-12-17T01:35:04.642Z,1019.80
2018-12-17T01:36:04.679Z,1019.81
2018-12-17T01:37:04.622Z,1019.80
2018-12-17T01:38:04.613Z,1019.83
2018-12-17T01:39:04.597Z,1019.81
2018-12-17T01:40:04.591Z,1019.82
2018-12-17T01:41:14.727Z,1019.82
2018-12-17T01:42:04.575Z,1019.76
2018-12-17T01:43:04.565Z,1019.80
2018-12-17T01:44:04.550Z,1019.76
2018-12-17T01:45:04.553Z,1019.71
2018-12-17T01:46:04.529Z,1019.69
2018-12-17T01:47:04.539Z,1019.70
2018-12-17T01:48:04.521Z,1019.73
2018-12-17T01:49:04.498Z,1019.72
2018-12-17T01:50:04.491Z,1019.65
2018-12-17T01:51:04.477Z,1019.66
2018-12-17T01:52:04.469Z,1019.64
2018-12-17T01:53:04.480Z,1019.61
2018-12-17T01:54:04.448Z,1019.63
2018-12-17T01:55:04.442Z,1019.61
2018-12-17T01:56:04.430Z,1019.56
2018-12-17T01:57:04.416Z,1019.52
2018-12-17T01:58:04.405Z,1019.53
2018-12-17T01:59:04.721Z,1019.51
2018-12-17T02:00:04.392Z,1019.52
2018-12-17T02:01:04.379Z,1019.49
2018-12-17T02:02:04.370Z,1019.50
2018-12-17T02:03:04.354Z,1019.43
2018-12-17T02:04:04.351Z,1019.44
2018-12-17T02:05:04.388Z,1019.42
2018-12-17T02:06:04.326Z,1019.39
2018-12-17T02:07:04.325Z,1019.33
2018-12-17T02:08:04.310Z,1019.34
2018-12-17T02:09:04.299Z,1019.31
2018-12-17T02:10:04.290Z,1019.32
2018-12-17T02:11:04.705Z,1019.29
2018-12-17T02:12:14.374Z,1019.31
2018-12-17T02:13:04.255Z,1019.24
2018-12-17T02:14:04.245Z,1019.25
2018-12-17T02:15:04.240Z,1019.22
2018-12-17T02:16:04.232Z,1019.20
2018-12-17T02:17:04.271Z,1019.21
2018-12-17T02:18:04.206Z,1019.20
2018-12-17T02:19:04.196Z,1019.19
2018-12-17T02:20:04.191Z,1019.21
2018-12-17T02:21:04.172Z,1019.19
2018-12-17T02:22:04.172Z,1019.20
2018-12-17T02:23:04.207Z,1019.21
2018-12-17T02:24:04.190Z,1019.21
2018-12-17T02:25:04.133Z,1019.18
2018-12-17T02:26:04.136Z,1019.19
2018-12-17T02:27:04.120Z,1019.18
2018-12-17T02:28:04.103Z,1019.16
2018-12-17T02:29:04.116Z,1019.15
2018-12-17T02:30:04.083Z,1019.16
2018-12-17T02:31:04.073Z,1019.12
2018-12-17T02:32:04.072Z,1019.11
2018-12-17T02:33:04.052Z,1019.14
2018-12-17T02:34:04.053Z,1019.09
2018-12-17T02:35:04.696Z,1019.13
2018-12-17T02:36:04.021Z,1019.07
2018-12-17T02:37:04.011Z,1019.04
2018-12-17T02:38:04.013Z,1019.03
2018-12-17T02:39:03.990Z,1018.99
2018-12-17T02:40:03.983Z,1019.00
2018-12-17T02:41:04.219Z,1019.02
2018-12-17T02:42:03.961Z,1019.01
2018-12-17T02:43:14.653Z,1018.95
2018-12-17T02:44:03.945Z,1018.95
2018-12-17T02:45:03.932Z,1018.89
2018-12-17T02:46:03.923Z,1018.87
2018-12-17T02:47:03.951Z,1018.89
2018-12-17T02:48:03.910Z,1018.90
2018-12-17T02:49:03.899Z,1018.90
2018-12-17T02:50:03.885Z,1018.92
2018-12-17T02:51:03.873Z,1018.93
2018-12-17T02:52:03.902Z,1018.84
2018-12-17T02:53:04.620Z,1018.87
2018-12-17T02:54:03.842Z,1018.88
2018-12-17T02:55:03.885Z,1018.85
2018-12-17T02:56:03.819Z,1018.85
2018-12-17T02:57:03.835Z,1018.83
2018-12-17T02:58:03.800Z,1018.84
2018-12-17T02:59:04.218Z,1018.83
2018-12-17T03:00:03.779Z,1018.82
2018-12-17T03:01:03.774Z,1018.81
2018-12-17T03:02:03.758Z,1018.81
2018-12-17T03:03:03.759Z,1018.80
2018-12-17T03:04:03.742Z,1018.73
2018-12-17T03:05:03.767Z,1018.71
2018-12-17T03:06:03.718Z,1018.73
2018-12-17T03:07:03.716Z,1018.74
2018-12-17T03:08:03.700Z,1018.65
2018-12-17T03:09:03.697Z,1018.66
2018-12-17T03:10:03.681Z,1018.62
2018-12-17T03:11:03.687Z,1018.60
2018-12-17T03:12:03.663Z,1018.59
2018-12-17T03:13:03.648Z,1018.55
2018-12-17T03:14:14.100Z,1018.52
2018-12-17T03:15:03.629Z,1018.57
2018-12-17T03:16:03.618Z,1018.58
2018-12-17T03:17:03.627Z,1018.54
2018-12-17T03:18:03.598Z,1018.58
2018-12-17T03:19:03.592Z,1018.47
2018-12-17T03:20:03.576Z,1018.47
2018-12-17T03:21:03.571Z,1018.48
2018-12-17T03:22:03.563Z,1018.47
2018-12-17T03:23:03.591Z,1018.47
2018-12-17T03:24:03.539Z,1018.44
2018-12-17T03:25:03.529Z,1018.44
2018-12-17T03:26:03.519Z,1018.46
2018-12-17T03:27:03.538Z,1018.39
2018-12-17T03:28:03.494Z,1018.35
2018-12-17T03:29:03.522Z,1018.34
2018-12-17T03:30:03.476Z,1018.36
2018-12-17T03:31:03.467Z,1018.38
2018-12-17T03:32:03.461Z,1018.28
2018-12-17T03:33:03.466Z,1018.25
2018-12-17T03:34:03.439Z,1018.22
2018-12-17T03:35:03.469Z,1018.23
2018-12-17T03:36:03.421Z,1018.22
2018-12-17T03:37:03.410Z,1018.15
2018-12-17T03:38:03.398Z,1018.24
2018-12-17T03:39:03.393Z,1018.19
2018-12-17T03:40:03.376Z,1018.21
2018-12-17T03:41:03.409Z,1018.18
2018-12-17T03:42:03.359Z,1018.16
2018-12-17T03:43:03.345Z,1018.26
2018-12-17T03:44:03.338Z,1018.30
2018-12-17T03:45:13.912Z,1018.24
2018-12-17T03:46:03.319Z,1018.20
2018-12-17T03:47:04.259Z,1018.17
2018-12-17T03:48:03.299Z,1018.23
2018-12-17T03:49:03.287Z,1018.17
2018-12-17T03:50:03.280Z,1018.12
2018-12-17T03:51:03.268Z,1018.15
2018-12-17T03:52:03.255Z,1018.10
2018-12-17T03:53:03.286Z,1018.00
2018-12-17T03:54:03.242Z,1017.99
2018-12-17T03:55:03.225Z,1017.97
2018-12-17T03:56:03.215Z,1017.96
2018-12-17T03:57:03.207Z,1017.98
2018-12-17T03:58:03.193Z,1017.98
2018-12-17T03:59:03.237Z,1018.03
2018-12-17T04:00:03.173Z,1017.99
2018-12-17T04:01:03.162Z,1017.97
2018-12-17T04:02:03.153Z,1017.91
2018-12-17T04:03:03.172Z,1017.94
2018-12-17T04:04:03.136Z,1017.93
2018-12-17T04:05:03.278Z,1017.95
2018-12-17T04:06:03.117Z,1017.95
2018-12-17T04:07:03.101Z,1017.98
2018-12-17T04:08:03.093Z,1017.97
2018-12-17T04:09:03.082Z,1017.98
2018-12-17T04:10:03.072Z,1017.98
2018-12-17T04:11:03.266Z,1017.98
2018-12-17T04:12:03.054Z,1017.97
2018-12-17T04:13:03.041Z,1017.99
2018-12-17T04:14:03.033Z,1017.97
2018-12-17T04:15:03.024Z,1017.99
2018-12-17T04:16:13.300Z,1017.97
2018-12-17T04:17:02.999Z,1017.99
2018-12-17T04:18:02.989Z,1017.92
2018-12-17T04:19:02.981Z,1017.88
2018-12-17T04:20:03.047Z,1017.91
2018-12-17T04:21:02.961Z,1017.84
2018-12-17T04:22:03.002Z,1017.88
2018-12-17T04:23:02.938Z,1017.87
2018-12-17T04:24:02.933Z,1017.96
2018-12-17T04:25:02.931Z,1017.88
2018-12-17T04:26:03.040Z,1017.89
2018-12-17T04:27:02.900Z,1017.86
2018-12-17T04:28:03.291Z,1017.88
2018-12-17T04:29:06.820Z,1017.80
2018-12-17T04:30:02.869Z,1017.79
2018-12-17T04:31:02.859Z,1017.87
2018-12-17T04:32:02.852Z,1017.84
2018-12-17T04:33:02.841Z,1017.79
2018-12-17T04:34:02.887Z,1017.81
2018-12-17T04:35:02.837Z,1017.83
2018-12-17T04:36:02.817Z,1017.87
2018-12-17T04:37:02.800Z,1017.80
2018-12-17T04:38:02.793Z,1017.85
2018-12-17T04:39:02.775Z,1017.78
2018-12-17T04:40:02.803Z,1017.77
2018-12-17T04:41:02.762Z,1017.84
2018-12-17T04:42:02.755Z,1017.74
2018-12-17T04:43:02.742Z,1017.78
2018-12-17T04:44:02.728Z,1017.83
2018-12-17T04:45:02.715Z,1017.90
2018-12-17T04:46:02.757Z,1017.85
2018-12-17T04:47:15.451Z,1017.77
2018-12-17T04:48:02.691Z,1017.90
2018-12-17T04:49:02.680Z,1017.82
2018-12-17T04:50:02.666Z,1017.68
2018-12-17T04:51:02.665Z,1017.84
2018-12-17T04:52:02.685Z,1017.76
2018-12-17T04:53:02.636Z,1017.71
2018-12-17T04:54:02.638Z,1017.69
2018-12-17T04:55:02.620Z,1017.68
2018-12-17T04:56:02.605Z,1017.72
2018-12-17T04:57:02.610Z,1017.70
2018-12-17T04:58:02.798Z,1017.63
2018-12-17T04:59:02.583Z,1017.65
2018-12-17T05:00:02.567Z,1017.66
2018-12-17T05:01:02.558Z,1017.76
2018-12-17T05:02:02.549Z,1017.62
2018-12-17T05:03:02.549Z,1017.74
2018-12-17T05:04:02.795Z,1017.70
2018-12-17T05:05:02.527Z,1017.67
2018-12-17T05:06:02.507Z,1017.71
2018-12-17T05:07:02.498Z,1017.66
2018-12-17T05:08:02.492Z,1017.62
2018-12-17T05:09:02.477Z,1017.61
2018-12-17T05:10:02.485Z,1017.58
2018-12-17T05:11:02.467Z,1017.56
2018-12-17T05:12:02.454Z,1017.56
2018-12-17T05:13:02.432Z,1017.55
2018-12-17T05:14:02.426Z,1017.53
2018-12-17T05:15:03.795Z,1017.51
2018-12-17T05:16:02.792Z,1017.48
2018-12-17T05:17:02.394Z,1017.42
2018-12-17T05:18:12.329Z,1017.48
2018-12-17T05:19:02.380Z,1017.54
2018-12-17T05:20:02.362Z,1017.45
2018-12-17T05:21:02.353Z,1017.42
2018-12-17T05:22:02.377Z,1017.46
2018-12-17T05:23:02.337Z,1017.46
2018-12-17T05:24:02.323Z,1017.46
2018-12-17T05:25:02.315Z,1017.44
2018-12-17T05:26:02.314Z,1017.48
2018-12-17T05:27:02.296Z,1017.46
2018-12-17T05:28:02.326Z,1017.45
2018-12-17T05:29:02.272Z,1017.46
2018-12-17T05:30:02.262Z,1017.46
2018-12-17T05:31:02.268Z,1017.47
2018-12-17T05:32:02.244Z,1017.41
2018-12-17T05:33:02.238Z,1017.43
2018-12-17T05:34:02.269Z,1017.40
2018-12-17T05:35:02.218Z,1017.41
2018-12-17T05:36:02.199Z,1017.40
2018-12-17T05:37:02.207Z,1017.40
2018-12-17T05:38:02.184Z,1017.37
2018-12-17T05:39:02.175Z,1017.35
2018-12-17T05:40:02.242Z,1017.36
2018-12-17T05:41:02.153Z,1017.34
2018-12-17T05:42:02.147Z,1017.39
2018-12-17T05:43:02.140Z,1017.37
2018-12-17T05:44:02.119Z,1017.30
2018-12-17T05:45:02.116Z,1017.30
2018-12-17T05:46:02.798Z,1017.34
2018-12-17T05:47:02.091Z,1017.32
2018-12-17T05:48:02.143Z,1017.28
2018-12-17T05:49:14.108Z,1017.35
2018-12-17T05:50:02.059Z,1017.30
2018-12-17T05:51:02.054Z,1017.42
2018-12-17T05:52:02.375Z,1017.29
2018-12-17T05:53:02.034Z,1017.35
2018-12-17T05:54:02.030Z,1017.34
2018-12-17T05:55:02.030Z,1017.28
2018-12-17T05:56:02.000Z,1017.28
2018-12-17T05:57:02.001Z,1017.30
2018-12-17T05:58:02.007Z,1017.27
2018-12-17T05:59:01.967Z,1017.32
2018-12-17T06:00:01.961Z,1017.31
2018-12-17T06:01:01.951Z,1017.29
2018-12-17T06:02:01.951Z,1017.24
2018-12-17T06:03:01.932Z,1017.31
2018-12-17T06:04:02.014Z,1017.35
2018-12-17T06:05:01.913Z,1017.30
2018-12-17T06:06:01.901Z,1017.32
2018-12-17T06:07:01.896Z,1017.35
2018-12-17T06:08:01.890Z,1017.32
2018-12-17T06:09:01.874Z,1017.35
2018-12-17T06:10:02.318Z,1017.32
2018-12-17T06:11:01.850Z,1017.36
2018-12-17T06:12:01.843Z,1017.37
2018-12-17T06:13:01.830Z,1017.36
2018-12-17T06:14:01.829Z,1017.43
2018-12-17T06:15:01.806Z,1017.42
2018-12-17T06:16:01.847Z,1017.35
2018-12-17T06:17:01.786Z,1017.36
2018-12-17T06:18:01.795Z,1017.37
2018-12-17T06:19:01.778Z,1017.37
2018-12-17T06:20:12.020Z,1017.31
2018-12-17T06:21:01.756Z,1017.34
2018-12-17T06:22:01.873Z,1017.38
2018-12-17T06:23:01.727Z,1017.39
2018-12-17T06:24:01.714Z,1017.39
2018-12-17T06:25:01.722Z,1017.45
2018-12-17T06:26:01.699Z,1017.44
2018-12-17T06:27:01.706Z,1017.49
2018-12-17T06:28:01.746Z,1017.46
2018-12-17T06:29:01.672Z,1017.47
2018-12-17T06:30:01.720Z,1017.45
2018-12-17T06:31:01.643Z,1017.49
2018-12-17T06:32:01.637Z,1017.51
2018-12-17T06:33:01.631Z,1017.51
2018-12-17T06:34:01.721Z,1017.50
2018-12-17T06:35:01.613Z,1017.58
2018-12-17T06:36:01.598Z,1017.60
2018-12-17T06:37:01.588Z,1017.55
2018-12-17T06:38:01.667Z,1017.54
2018-12-17T06:39:01.579Z,1017.57
2018-12-17T06:40:01.844Z,1017.54
2018-12-17T06:41:01.542Z,1017.57
2018-12-17T06:42:01.538Z,1017.54
2018-12-17T06:43:01.526Z,1017.54
2018-12-17T06:44:01.519Z,1017.53
2018-12-17T06:45:01.515Z,1017.55
2018-12-17T06:46:01.547Z,1017.56
2018-12-17T06:47:01.494Z,1017.55
2018-12-17T06:48:01.474Z,1017.59
2018-12-17T06:49:01.462Z,1017.54
2018-12-17T06:50:01.454Z,1017.49
2018-12-17T06:51:12.364Z,1017.56
2018-12-17T06:52:01.430Z,1017.53
2018-12-17T06:53:01.428Z,1017.48
2018-12-17T06:54:01.414Z,1017.54
2018-12-17T06:55:01.402Z,1017.46
2018-12-17T06:56:01.397Z,1017.44
2018-12-17T06:57:01.493Z,1017.49
2018-12-17T06:58:01.376Z,1017.41
2018-12-17T06:59:01.364Z,1017.44
2018-12-17T07:00:01.399Z,1017.45
2018-12-17T07:01:01.345Z,1017.45
2018-12-17T07:02:01.332Z,1017.45
2018-12-17T07:03:01.364Z,1017.42
2018-12-17T07:04:01.316Z,1017.40
2018-12-17T07:05:01.307Z,1017.36
2018-12-17T07:06:01.290Z,1017.36
2018-12-17T07:07:01.279Z,1017.39
2018-12-17T07:08:01.271Z,1017.41
2018-12-17T07:09:01.352Z,1017.43
2018-12-17T07:10:01.254Z,1017.43
2018-12-17T07:11:01.261Z,1017.43
2018-12-17T07:12:01.238Z,1017.46
2018-12-17T07:13:01.226Z,1017.43
2018-12-17T07:14:01.214Z,1017.46
2018-12-17T07:15:01.256Z,1017.50
2018-12-17T07:16:01.195Z,1017.42
2018-12-17T07:17:01.182Z,1017.44
2018-12-17T07:18:01.171Z,1017.43
2018-12-17T07:19:01.163Z,1017.46
2018-12-17T07:20:01.151Z,1017.44
2018-12-17T07:21:01.176Z,1017.44
2018-12-17T07:22:11.590Z,1017.52
2018-12-17T07:23:01.117Z,1017.46
2018-12-17T07:24:01.198Z,1017.55
2018-12-17T07:25:01.104Z,1017.58
2018-12-17T07:26:01.093Z,1017.56
2018-12-17T07:27:02.120Z,1017.57
2018-12-17T07:28:01.069Z,1017.53
2018-12-17T07:29:01.089Z,1017.62
2018-12-17T07:30:01.047Z,1017.66
2018-12-17T07:31:01.038Z,1017.64
2018-12-17T07:32:01.034Z,1017.68
2018-12-17T07:33:01.315Z,1017.61
2018-12-17T07:34:01.009Z,1017.63
2018-12-17T07:35:01.260Z,1017.59
2018-12-17T07:36:00.992Z,1017.62
2018-12-17T07:37:00.979Z,1017.61
2018-12-17T07:38:01.017Z,1017.63
2018-12-17T07:39:01.449Z,1017.69
2018-12-17T07:40:00.952Z,1017.63
2018-12-17T07:41:00.940Z,1017.63
2018-12-17T07:42:00.936Z,1017.60
2018-12-17T07:43:00.922Z,1017.68
2018-12-17T07:44:00.902Z,1017.63
2018-12-17T07:45:01.349Z,1017.59
2018-12-17T07:46:00.882Z,1017.58
2018-12-17T07:47:00.881Z,1017.58
2018-12-17T07:48:00.876Z,1017.57
2018-12-17T07:49:00.851Z,1017.56
2018-12-17T07:50:00.853Z,1017.58
2018-12-17T07:51:01.639Z,1017.54
2018-12-17T07:52:00.826Z,1017.57
2018-12-17T07:53:10.756Z,1017.51
2018-12-17T07:54:00.810Z,1017.52
2018-12-17T07:55:00.797Z,1017.52
2018-12-17T07:56:00.780Z,1017.54
2018-12-17T07:57:00.814Z,1017.58
2018-12-17T07:58:00.768Z,1017.58
2018-12-17T07:59:00.760Z,1017.57
2018-12-17T08:00:00.744Z,1017.56
2018-12-17T08:01:00.746Z,1017.57
2018-12-17T08:02:00.741Z,1017.54
2018-12-17T08:03:00.758Z,1017.48
2018-12-17T08:04:00.704Z,1017.50
2018-12-17T08:05:00.690Z,1017.51
2018-12-17T08:06:00.701Z,1017.51
2018-12-17T08:07:00.687Z,1017.49
2018-12-17T08:08:00.674Z,1017.50
2018-12-17T08:09:00.774Z,1017.47
2018-12-17T08:10:00.643Z,1017.50
2018-12-17T08:11:00.632Z,1017.54
2018-12-17T08:12:00.623Z,1017.55
2018-12-17T08:13:00.619Z,1017.61
2018-12-17T08:14:00.604Z,1017.57
2018-12-17T08:15:00.652Z,1017.57
2018-12-17T08:16:00.595Z,1017.59
2018-12-17T08:17:00.575Z,1017.58
2018-12-17T08:18:00.564Z,1017.54
2018-12-17T08:19:00.552Z,1017.52
2018-12-17T08:20:00.553Z,1017.53
2018-12-17T08:21:01.389Z,1017.49
2018-12-17T08:22:00.518Z,1017.54
2018-12-17T08:23:00.528Z,1017.58
2018-12-17T08:24:13.128Z,1017.57
2018-12-17T08:25:02.232Z,1017.57
2018-12-17T08:26:00.483Z,1017.56
2018-12-17T08:27:00.512Z,1017.59
2018-12-17T08:28:00.459Z,1017.60
2018-12-17T08:29:00.521Z,1017.49
2018-12-17T08:30:03.879Z,1017.54
2018-12-17T08:31:00.429Z,1017.60
2018-12-17T08:32:00.512Z,1017.57
2018-12-17T08:33:01.656Z,1017.62
2018-12-17T08:34:00.404Z,1017.64
2018-12-17T08:35:00.442Z,1017.65
2018-12-17T08:36:00.389Z,1017.71
2018-12-17T08:37:00.368Z,1017.70
2018-12-17T08:38:00.365Z,1017.69
2018-12-17T08:39:00.386Z,1017.67
2018-12-17T08:40:00.338Z,1017.68
2018-12-17T08:41:00.332Z,1017.71
2018-12-17T08:42:00.337Z,1017.67
2018-12-17T08:43:00.315Z,1017.70
2018-12-17T08:44:00.306Z,1017.67
2018-12-17T08:45:00.329Z,1017.64
2018-12-17T08:46:00.282Z,1017.67
2018-12-17T08:47:00.263Z,1017.66
2018-12-17T08:48:00.253Z,1017.59
2018-12-17T08:49:00.247Z,1017.60
2018-12-17T08:50:00.294Z,1017.55
2018-12-17T08:51:00.392Z,1017.51
2018-12-17T08:52:00.216Z,1017.53
2018-12-17T08:53:00.202Z,1017.49
2018-12-17T08:54:00.194Z,1017.53
2018-12-17T08:55:10.313Z,1017.50
2018-12-17T08:56:00.176Z,1017.52
2018-12-17T08:57:00.209Z,1017.52
2018-12-17T08:58:00.156Z,1017.59
2018-12-17T08:59:00.148Z,1017.59
2018-12-17T09:00:00.143Z,1017.59
2018-12-17T09:01:00.132Z,1017.62
2018-12-17T09:02:00.113Z,1017.63
2018-12-17T09:03:00.138Z,1017.67
2018-12-17T09:04:00.099Z,1017.65
2018-12-17T09:05:00.086Z,1017.67
2018-12-17T09:06:00.681Z,1017.69
2018-12-17T09:07:00.066Z,1017.69
2018-12-17T09:08:00.069Z,1017.71
2018-12-17T09:09:00.093Z,1017.71
2018-12-17T09:10:00.040Z,1017.69
2018-12-17T09:11:00.024Z,1017.68
2018-12-17T09:12:00.016Z,1017.71
2018-12-17T09:13:00.001Z,1017.69
2018-12-17T09:14:00.859Z,1017.66
2018-12-17T09:15:00.912Z,1017.73
2018-12-17T09:15:59.971Z,1017.72
2018-12-17T09:16:59.963Z,1017.68
2018-12-17T09:17:59.952Z,1017.71
2018-12-17T09:18:59.939Z,1017.70
2018-12-17T09:19:59.943Z,1017.72
2018-12-17T09:21:00.911Z,1017.63
2018-12-17T09:21:59.907Z,1017.62
2018-12-17T09:22:59.896Z,1017.59
2018-12-17T09:23:59.905Z,1017.62
2018-12-17T09:24:59.893Z,1017.60
2018-12-17T09:26:10.405Z,1017.61
2018-12-17T09:26:59.855Z,1017.57
2018-12-17T09:27:59.853Z,1017.54
2018-12-17T09:28:59.837Z,1017.52
2018-12-17T09:29:59.824Z,1017.54
2018-12-17T09:30:59.976Z,1017.50
2018-12-17T09:31:59.845Z,1017.51
2018-12-17T09:32:59.799Z,1017.55
2018-12-17T09:33:59.800Z,1017.53
2018-12-17T09:34:59.782Z,1017.49
2018-12-17T09:35:59.769Z,1017.52
2018-12-17T09:36:59.758Z,1017.51
2018-12-17T09:37:59.797Z,1017.51
2018-12-17T09:38:59.737Z,1017.59
2018-12-17T09:39:59.728Z,1017.62
2018-12-17T09:40:59.715Z,1017.60
2018-12-17T09:41:59.703Z,1017.57
2018-12-17T09:42:59.691Z,1017.59
2018-12-17T09:43:59.718Z,1017.58
2018-12-17T09:44:59.675Z,1017.60
2018-12-17T09:45:59.673Z,1017.62
2018-12-17T09:46:59.654Z,1017.59
2018-12-17T09:47:59.644Z,1017.65
2018-12-17T09:48:59.639Z,1017.64
2018-12-17T09:49:59.640Z,1017.58
2018-12-17T09:50:59.611Z,1017.61
2018-12-17T09:51:59.607Z,1017.56
2018-12-17T09:52:59.594Z,1017.56
2018-12-17T09:53:59.587Z,1017.58
2018-12-17T09:54:59.568Z,1017.53
2018-12-17T09:55:59.575Z,1017.53
2018-12-17T09:57:09.655Z,1017.52
2018-12-17T09:57:59.540Z,1017.46
2018-12-17T09:58:59.530Z,1017.49
2018-12-17T09:59:59.520Z,1017.48
2018-12-17T10:00:59.515Z,1017.45
2018-12-17T10:01:59.538Z,1017.46
2018-12-17T10:02:59.497Z,1017.44
2018-12-17T10:03:59.482Z,1017.51
2018-12-17T10:04:59.473Z,1017.46
2018-12-17T10:05:59.463Z,1017.42
2018-12-17T10:06:59.450Z,1017.49
2018-12-17T10:07:59.937Z,1017.50
2018-12-17T10:09:01.095Z,1017.54
2018-12-17T10:09:59.521Z,1017.50
2018-12-17T10:10:59.408Z,1017.53
2018-12-17T10:11:59.401Z,1017.53
2018-12-17T10:12:59.398Z,1017.49
2018-12-17T10:13:59.431Z,1017.44
2018-12-17T10:14:59.452Z,1017.46
2018-12-17T10:15:59.363Z,1017.53
2018-12-17T10:16:59.392Z,1017.46
2018-12-17T10:17:59.338Z,1017.44
2018-12-17T10:18:59.352Z,1017.42
2018-12-17T10:19:59.349Z,1017.43
2018-12-17T10:20:59.304Z,1017.42
2018-12-17T10:21:59.302Z,1017.40
2018-12-17T10:22:59.290Z,1017.36
2018-12-17T10:23:59.281Z,1017.37
2018-12-17T10:24:59.263Z,1017.39
2018-12-17T10:25:59.283Z,1017.40
2018-12-17T10:26:59.241Z,1017.37
2018-12-17T10:29:18.685Z,1017.38
2018-12-17T10:30:18.051Z,1017.36
2018-12-17T10:31:18.044Z,1017.37
2018-12-17T10:32:18.038Z,1017.40
2018-12-17T10:33:18.022Z,1017.36
2018-12-17T10:34:18.010Z,1017.38
2018-12-17T10:35:18.791Z,1017.39
2018-12-17T10:36:17.985Z,1017.43
2018-12-17T10:37:17.980Z,1017.45
2018-12-17T10:38:17.970Z,1017.48
2018-12-17T10:39:17.951Z,1017.46
2018-12-17T10:40:17.952Z,1017.51
2018-12-17T10:41:17.946Z,1017.48
2018-12-17T10:42:17.932Z,1017.45
2018-12-17T10:43:17.913Z,1017.45
2018-12-17T10:44:17.898Z,1017.51
2018-12-17T10:45:17.892Z,1017.47
2018-12-17T10:46:17.880Z,1017.50
2018-12-17T10:47:17.916Z,1017.52
2018-12-17T10:48:17.860Z,1017.57
2018-12-17T10:49:17.852Z,1017.58
2018-12-17T10:50:17.836Z,1017.56
2018-12-17T10:51:17.825Z,1017.55
2018-12-17T10:52:17.903Z,1017.57
2018-12-17T10:53:18.189Z,1017.64
2018-12-17T10:54:17.793Z,1017.56
2018-12-17T10:55:17.795Z,1017.60
2018-12-17T10:56:17.773Z,1017.66
2018-12-17T10:57:17.762Z,1017.61
2018-12-17T10:58:17.800Z,1017.54
2018-12-17T10:59:25.244Z,1017.55
2018-12-17T11:00:17.729Z,1017.49
2018-12-17T11:01:17.739Z,1017.45
2018-12-17T11:02:17.716Z,1017.41
2018-12-17T11:03:17.701Z,1017.44
2018-12-17T11:04:17.697Z,1017.47
2018-12-17T11:05:17.725Z,1017.46
2018-12-17T11:06:17.679Z,1017.47
2018-12-17T11:07:17.660Z,1017.45
2018-12-17T11:08:17.655Z,1017.51
2018-12-17T11:09:17.636Z,1017.54
2018-12-17T11:10:17.628Z,1017.49
2018-12-17T11:11:17.640Z,1017.52
2018-12-17T11:12:17.607Z,1017.52
2018-12-17T11:13:17.613Z,1017.48
2018-12-17T11:14:17.605Z,1017.43
2018-12-17T11:15:17.571Z,1017.48
2018-12-17T11:16:17.567Z,1017.44
2018-12-17T11:17:17.625Z,1017.48
2018-12-17T11:18:17.542Z,1017.47
2018-12-17T11:19:17.543Z,1017.47
2018-12-17T11:20:17.525Z,1017.52
2018-12-17T11:21:17.514Z,1017.49
2018-12-17T11:22:17.502Z,1017.51
2018-12-17T11:23:18.152Z,1017.52
2018-12-17T11:24:17.484Z,1017.53
2018-12-17T11:25:17.479Z,1017.49
2018-12-17T11:26:17.457Z,1017.53
2018-12-17T11:27:17.446Z,1017.53
2018-12-17T11:28:17.497Z,1017.54
2018-12-17T11:29:17.464Z,1017.56
2018-12-17T11:30:28.070Z,1017.51
2018-12-17T11:31:17.407Z,1017.49
2018-12-17T11:32:17.400Z,1017.49
2018-12-17T11:33:17.389Z,1017.48
2018-12-17T11:34:17.380Z,1017.52
2018-12-17T11:35:18.207Z,1017.52
2018-12-17T11:36:17.355Z,1017.59
2018-12-17T11:37:17.341Z,1017.54
2018-12-17T11:38:17.340Z,1017.54
2018-12-17T11:39:17.325Z,1017.53
2018-12-17T11:40:17.316Z,1017.47
2018-12-17T11:41:17.338Z,1017.51
2018-12-17T11:42:17.289Z,1017.54
2018-12-17T11:43:17.293Z,1017.52
2018-12-17T11:44:17.271Z,1017.48
2018-12-17T11:45:17.264Z,1017.49
2018-12-17T11:46:17.257Z,1017.48
2018-12-17T11:47:17.290Z,1017.52
2018-12-17T11:48:17.227Z,1017.50
2018-12-17T11:49:17.234Z,1017.46
2018-12-17T11:50:17.210Z,1017.50
2018-12-17T11:51:17.201Z,1017.46
2018-12-17T11:52:17.187Z,1017.42
2018-12-17T11:53:17.224Z,1017.43
2018-12-17T11:54:17.167Z,1017.41
2018-12-17T11:55:17.163Z,1017.41
2018-12-17T11:56:17.145Z,1017.43
2018-12-17T11:57:17.133Z,1017.39
2018-12-17T11:58:17.125Z,1017.44
2018-12-17T11:59:17.160Z,1017.40
2018-12-17T12:00:17.101Z,1017.37
2018-12-17T12:01:27.312Z,1017.33
2018-12-17T12:02:17.089Z,1017.35
2018-12-17T12:03:17.072Z,1017.30
2018-12-17T12:04:17.061Z,1017.31
2018-12-17T12:05:17.092Z,1017.29
2018-12-17T12:06:17.049Z,1017.32